createdAt,value
2023-03-22T00:00:56.619Z,100078.47
2023-03-22T00:05:59.655Z,100074.06
2023-03-22T00:11:03.755Z,100076.22
2023-03-22T00:16:07.491Z,100076.53
2023-03-22T00:21:17.485Z,100070.75
2023-03-22T00:26:20.993Z,100066.06
2023-03-22T00:31:24.246Z,100068.84
2023-03-22T00:36:27.410Z,100060.69
2023-03-22T00:41:30.703Z,100061.78
2023-03-22T00:46:33.584Z,100064.84
2023-03-22T00:51:36.608Z,100067.06
2023-03-22T00:56:39.968Z,100063.88
2023-03-22T01:01:43.546Z,100061.53
2023-03-22T01:06:47.222Z,100059.13
2023-03-22T01:11:50.082Z,100049.69
2023-03-22T01:16:57.772Z,100053.44
2023-03-22T01:22:00.856Z,100053.97
2023-03-22T01:27:04.107Z,100054.28
2023-03-22T01:32:07.258Z,100038.19
2023-03-22T01:37:10.249Z,100035.81
2023-03-22T01:42:15.931Z,100041.75
2023-03-22T01:47:18.845Z,100039.00
2023-03-22T01:52:21.731Z,100046.03
2023-03-22T01:57:25.578Z,100041.16
2023-03-22T02:02:31.066Z,100054.44
2023-03-22T02:07:34.052Z,100042.78
2023-03-22T02:13:13.256Z,100059.97
2023-03-22T02:18:44.689Z,100057.53
2023-03-22T02:24:07.073Z,100053.81
2023-03-22T02:29:30.060Z,100049.94
2023-03-22T02:35:30.035Z,100061.63
2023-03-22T02:40:57.608Z,100055.94
2023-03-22T02:46:30.748Z,100056.81
2023-03-22T02:51:52.940Z,100051.81
2023-03-22T02:57:24.252Z,100060.69
2023-03-22T03:02:30.914Z,100057.03
2023-03-22T03:07:34.784Z,100063.47
2023-03-22T03:12:37.646Z,100070.81
2023-03-22T03:18:07.405Z,100062.84
2023-03-22T03:24:01.530Z,100069.09
2023-03-22T03:29:09.454Z,100067.72
2023-03-22T03:34:28.506Z,100071.53
2023-03-22T03:39:35.472Z,100069.84
2023-03-22T03:44:39.338Z,100067.88
2023-03-22T03:49:42.424Z,100070.59
2023-03-22T03:54:45.754Z,100063.94
2023-03-22T03:59:48.930Z,100057.41
2023-03-22T04:04:51.926Z,100062.63
2023-03-22T04:09:54.937Z,100067.00
2023-03-22T04:14:59.645Z,100063.00
2023-03-22T04:20:05.835Z,100073.72
2023-03-22T04:25:14.310Z,100074.13
2023-03-22T04:30:20.198Z,100065.66
2023-03-22T04:35:23.653Z,100057.91
2023-03-22T04:40:28.601Z,100075.81
2023-03-22T04:45:32.402Z,100068.72
2023-03-22T04:50:35.497Z,100077.03
2023-03-22T04:55:38.412Z,100090.94
2023-03-22T05:00:42.378Z,100067.19
2023-03-22T05:05:57.917Z,100083.69
2023-03-22T05:11:11.952Z,100094.53
2023-03-22T05:16:15.190Z,100087.59
2023-03-22T05:21:22.234Z,100102.16
2023-03-22T05:26:26.693Z,100099.94
2023-03-22T05:31:34.547Z,100107.75
2023-03-22T05:36:37.638Z,100114.25
2023-03-22T05:41:40.773Z,100114.22
2023-03-22T05:46:43.860Z,100112.25
2023-03-22T05:51:47.182Z,100120.84
2023-03-22T05:56:49.983Z,100123.88
2023-03-22T06:01:53.199Z,100127.44
2023-03-22T06:06:56.537Z,100135.13
2023-03-22T06:11:59.804Z,100141.69
2023-03-22T06:17:02.902Z,100134.34
2023-03-22T06:22:08.469Z,100139.72
2023-03-22T06:27:11.739Z,100140.31
2023-03-22T06:32:16.924Z,100141.28
2023-03-22T06:37:20.288Z,100140.38
2023-03-22T06:42:23.545Z,100144.38
2023-03-22T06:47:27.266Z,100146.94
2023-03-22T06:52:30.281Z,100142.41
2023-03-22T06:57:33.431Z,100154.38
2023-03-22T07:02:36.475Z,100150.91
2023-03-22T07:07:39.668Z,100158.72
2023-03-22T07:12:42.890Z,100159.72
2023-03-22T07:17:46.559Z,100154.13
2023-03-22T07:22:52.082Z,100155.47
2023-03-22T07:27:56.922Z,100157.97
2023-03-22T07:33:01.438Z,100147.34
2023-03-22T07:38:05.477Z,100145.78
2023-03-22T07:43:12.096Z,100133.38
2023-03-22T07:48:15.436Z,100131.00
2023-03-22T07:53:19.908Z,100138.28
2023-03-22T07:58:22.940Z,100131.97
2023-03-22T08:03:26.503Z,100132.84
2023-03-22T08:08:29.503Z,100119.69
2023-03-22T08:13:33.313Z,100126.09
2023-03-22T08:18:36.730Z,100131.91
2023-03-22T08:23:42.136Z,100124.53
2023-03-22T08:28:45.477Z,100129.97
2023-03-22T08:33:50.032Z,100114.59
2023-03-22T08:38:54.424Z,100123.59
2023-03-22T08:43:57.677Z,100134.28
2023-03-22T08:49:02.368Z,100136.31
2023-03-22T08:54:06.111Z,100134.34
2023-03-22T08:59:10.250Z,100127.59
2023-03-22T09:04:13.884Z,100131.38
2023-03-22T09:09:16.968Z,100128.97
2023-03-22T09:14:19.918Z,100129.19
2023-03-22T09:19:23.067Z,100123.56
2023-03-22T09:24:25.872Z,100121.44
2023-03-22T09:29:28.843Z,100118.78
2023-03-22T09:34:32.128Z,100111.19
2023-03-22T09:39:38.688Z,100114.09
2023-03-22T09:44:44.933Z,100109.50
2023-03-22T09:49:54.204Z,100108.63
2023-03-22T09:54:58.623Z,100111.81
2023-03-22T10:00:37.541Z,100107.66
2023-03-22T10:06:21.137Z,100114.81
2023-03-22T10:11:25.109Z,100101.59
2023-03-22T10:16:34.004Z,100106.06
2023-03-22T10:21:37.425Z,100102.50
2023-03-22T10:26:45.733Z,100102.72
2023-03-22T10:31:48.778Z,100102.72
2023-03-22T10:36:53.523Z,100112.09
2023-03-22T10:42:01.232Z,100103.28
2023-03-22T10:47:08.416Z,100092.19
2023-03-22T10:52:27.183Z,100086.38
2023-03-22T10:57:30.365Z,100097.06
2023-03-22T11:02:33.669Z,100090.66
2023-03-22T11:07:45.320Z,100087.78
2023-03-22T11:13:08.053Z,100081.78
2023-03-22T11:18:15.971Z,100051.63
2023-03-22T11:23:21.636Z,100047.50
2023-03-22T11:28:41.098Z,100053.16
2023-03-22T11:33:57.821Z,100034.81
2023-03-22T11:39:07.441Z,100028.00
2023-03-22T11:44:21.810Z,100022.91
2023-03-22T11:49:37.068Z,100015.78
2023-03-22T11:54:42.569Z,100008.19
2023-03-22T12:00:11.938Z,100010.63
2023-03-22T12:05:29.770Z,100004.59
2023-03-22T12:10:48.266Z,100007.44
2023-03-22T12:15:58.628Z,100009.91
2023-03-22T12:21:02.472Z,100001.25
2023-03-22T12:26:24.847Z,100009.56
2023-03-22T12:31:44.633Z,100006.31
2023-03-22T12:36:57.685Z,100001.91
2023-03-22T12:42:34.925Z,100011.06
2023-03-22T12:47:48.703Z,100005.19
2023-03-22T12:52:56.722Z,99996.81
2023-03-22T12:58:00.909Z,99996.69
2023-03-22T13:03:38.657Z,99990.44
2023-03-22T13:09:09.940Z,99975.69
2023-03-22T13:14:49.006Z,99972.81
2023-03-22T13:20:00.293Z,99965.47
2023-03-22T13:25:29.221Z,99965.56
2023-03-22T13:30:57.539Z,99958.69
2023-03-22T13:36:25.045Z,99951.06
2023-03-22T13:41:31.899Z,99943.31
2023-03-22T13:46:37.960Z,99937.34
2023-03-22T13:51:43.011Z,99935.88
2023-03-22T13:56:59.614Z,99933.59
2023-03-22T14:02:25.147Z,99935.22
2023-03-22T14:07:56.270Z,99938.53
2023-03-22T14:13:33.209Z,99931.66
2023-03-22T14:18:41.646Z,99922.53
